Time,TemperatureF,DewpointF,PressureIn,WindDirection,WindDirectionDegrees,WindSpeedMPH,WindSpeedGustMPH,Humidity,HourlyPrecipIn,Conditions,Clouds,dailyrainin,SoftwareType,DateUTC
2013-06-19 00:02:00,55.9,34.9,29.63,West,279,4.0,6.0,45,0.00,,,0.00,meteohub,2013-06-19 06:02:00,
2013-06-19 00:08:00,55.6,35.1,29.63,West,279,4.0,6.0,46,0.00,,,0.00,meteohub,2013-06-19 06:08:00,
2013-06-19 00:14:00,55.2,35.4,29.63,West,279,3.0,6.0,47,0.00,,,0.00,meteohub,2013-06-19 06:14:00,
2013-06-19 00:20:00,54.9,35.1,29.63,West,279,5.0,6.0,47,0.00,,,0.00,meteohub,2013-06-19 06:20:00,
2013-06-19 00:26:00,54.1,34.9,29.63,West,279,4.0,7.0,48,0.00,,,0.00,meteohub,2013-06-19 06:26:00,
2013-06-19 00:32:00,53.6,34.9,29.63,West,279,5.0,7.0,49,0.00,,,0.00,meteohub,2013-06-19 06:32:00,
2013-06-19 00:38:00,53.2,34.5,29.63,West,279,1.0,7.0,49,0.00,,,0.00,meteohub,2013-06-19 06:38:00,
2013-06-19 00:44:00,52.7,34.5,29.63,West,279,1.0,5.0,50,0.00,,,0.00,meteohub,2013-06-19 06:44:00,
2013-06-19 00:50:00,52.2,35.1,29.63,West,279,4.0,5.0,52,0.00,,,0.00,meteohub,2013-06-19 06:50:00,
2013-06-19 00:56:00,52.3,34.7,29.63,West,279,0.0,5.0,51,0.00,,,0.00,meteohub,2013-06-19 06:56:00,
2013-06-19 01:02:00,51.6,34.5,29.63,West,279,2.0,5.0,52,0.00,,,0.00,meteohub,2013-06-19 07:02:00,
2013-06-19 01:08:00,51.4,34.3,29.63,West,279,0.0,5.0,52,0.00,,,0.00,meteohub,2013-06-19 07:08:00,
2013-06-19 01:14:00,51.3,34.7,29.64,West,279,0.0,3.0,53,0.00,,,0.00,meteohub,2013-06-19 07:14:00,
2013-06-19 01:20:00,51.3,34.7,29.63,West,279,0.0,2.0,53,0.00,,,0.00,meteohub,2013-06-19 07:20:00,
2013-06-19 01:26:00,50.9,34.9,29.64,West,279,0.0,3.0,54,0.00,,,0.00,meteohub,2013-06-19 07:26:00,
2013-06-19 01:32:00,50.5,34.5,29.64,West,279,2.0,3.0,54,0.00,,,0.00,meteohub,2013-06-19 07:32:00,
2013-06-19 01:38:00,50.5,35.1,29.64,West,279,0.0,3.0,55,0.00,,,0.00,meteohub,2013-06-19 07:38:00,
2013-06-19 01:45:00,51.6,35.6,29.63,West,279,2.0,3.0,54,0.00,,,0.00,meteohub,2013-06-19 07:45:00,
2013-06-19 01:51:00,53.1,36.3,29.63,West,279,0.0,4.0,53,0.00,,,0.00,meteohub,2013-06-19 07:51:00,
2013-06-19 01:57:00,53.4,37.2,29.63,West,279,0.0,6.0,54,0.00,,,0.00,meteohub,2013-06-19 07:57:00,
2013-06-19 02:03:00,53.4,37.2,29.63,West,279,3.0,6.0,54,0.00,,,0.00,meteohub,2013-06-19 08:03:00,
2013-06-19 02:09:00,53.2,37.9,29.63,West,280,5.0,6.0,56,0.00,,,0.00,meteohub,2013-06-19 08:09:00,
2013-06-19 02:15:00,53.1,38.3,29.63,WNW,284,2.0,6.0,57,0.00,,,0.00,meteohub,2013-06-19 08:15:00,
2013-06-19 02:21:00,52.9,38.5,29.63,WNW,284,0.0,6.0,58,0.00,,,0.00,meteohub,2013-06-19 08:21:00,
2013-06-19 02:27:00,52.7,39.2,29.62,WNW,284,3.0,5.0,60,0.00,,,0.00,meteohub,2013-06-19 08:27:00,
2013-06-19 02:33:00,52.5,39.4,29.63,WNW,284,3.0,7.0,61,0.00,,,0.00,meteohub,2013-06-19 08:33:00,
2013-06-19 02:39:00,52.5,39.4,29.62,WNW,284,4.0,7.0,61,0.00,,,0.00,meteohub,2013-06-19 08:39:00,
2013-06-19 02:45:00,52.3,39.4,29.62,WNW,285,3.0,7.0,61,0.00,,,0.00,meteohub,2013-06-19 08:45:00,
2013-06-19 02:51:00,52.2,39.2,29.62,WNW,285,3.0,5.0,61,0.00,,,0.00,meteohub,2013-06-19 08:51:00,
2013-06-19 02:57:00,51.6,39.4,29.62,WNW,285,3.0,5.0,63,0.00,,,0.00,meteohub,2013-06-19 08:57:00,
2013-06-19 03:03:00,51.4,39.2,29.63,WNW,285,4.0,5.0,63,0.00,,,0.00,meteohub,2013-06-19 09:03:00,
2013-06-19 03:09:00,51.1,39.4,29.63,WNW,285,4.0,5.0,64,0.00,,,0.00,meteohub,2013-06-19 09:09:00,
2013-06-19 03:15:00,50.7,39.4,29.62,WNW,286,5.0,6.0,65,0.00,,,0.00,meteohub,2013-06-19 09:15:00,
2013-06-19 03:21:00,50.5,39.6,29.62,WNW,293,5.0,7.0,66,0.00,,,0.00,meteohub,2013-06-19 09:21:00,
2013-06-19 03:27:00,50.4,39.7,29.62,WNW,293,4.0,8.0,67,0.00,,,0.00,meteohub,2013-06-19 09:27:00,
2013-06-19 03:33:00,50.2,40.5,29.62,WNW,293,6.0,8.0,69,0.00,,,0.00,meteohub,2013-06-19 09:33:00,
2013-06-19 03:39:00,49.8,40.5,29.62,NW,305,4.0,7.0,70,0.00,,,0.00,meteohub,2013-06-19 09:39:00,
2013-06-19 03:45:00,49.6,41.0,29.62,NW,305,4.0,8.0,72,0.00,,,0.00,meteohub,2013-06-19 09:45:00,
2013-06-19 03:51:00,49.3,41.0,29.62,NW,309,6.0,8.0,73,0.00,,,0.00,meteohub,2013-06-19 09:51:00,
2013-06-19 03:57:00,49.3,41.0,29.62,NW,317,4.0,8.0,73,0.00,,,0.00,meteohub,2013-06-19 09:57:00,
2013-06-19 04:03:00,49.1,40.8,29.62,NW,322,4.0,9.0,73,0.00,,,0.00,meteohub,2013-06-19 10:03:00,
2013-06-19 04:09:00,48.9,39.9,29.62,NW,322,0.0,9.0,71,0.00,,,0.00,meteohub,2013-06-19 10:09:00,
2013-06-19 04:15:00,48.7,39.7,29.62,NW,322,3.0,6.0,71,0.00,,,0.00,meteohub,2013-06-19 10:15:00,
2013-06-19 04:21:00,48.4,39.7,29.62,NW,322,4.0,5.0,72,0.00,,,0.00,meteohub,2013-06-19 10:21:00,
2013-06-19 04:27:00,47.8,39.6,29.62,NW,322,3.0,4.0,73,0.00,,,0.00,meteohub,2013-06-19 10:27:00,
2013-06-19 04:33:00,47.7,39.4,29.62,NW,322,3.0,5.0,73,0.00,,,0.00,meteohub,2013-06-19 10:33:00,
2013-06-19 04:39:00,47.5,39.6,29.62,NW,322,2.0,5.0,74,0.00,,,0.00,meteohub,2013-06-19 10:39:00,
2013-06-19 04:45:00,47.5,39.6,29.63,NW,322,3.0,8.0,74,0.00,,,0.00,meteohub,2013-06-19 10:45:00,
2013-06-19 04:51:00,47.3,39.7,29.63,NW,322,3.0,7.0,75,0.00,,,0.00,meteohub,2013-06-19 10:51:00,
2013-06-19 04:57:00,47.1,39.2,29.64,NW,322,3.0,5.0,74,0.00,,,0.00,meteohub,2013-06-19 10:57:00,
2013-06-19 05:03:00,46.9,39.4,29.64,NW,322,3.0,5.0,75,0.00,,,0.00,meteohub,2013-06-19 11:03:00,
2013-06-19 05:09:00,46.8,39.6,29.64,NW,322,4.0,4.0,76,0.00,,,0.00,meteohub,2013-06-19 11:09:00,
2013-06-19 05:15:00,46.8,39.9,29.64,NW,322,4.0,7.0,77,0.00,,,0.00,meteohub,2013-06-19 11:15:00,
2013-06-19 05:21:00,46.8,39.9,29.64,NW,322,4.0,7.0,77,0.00,,,0.00,meteohub,2013-06-19 11:21:00,
2013-06-19 05:28:00,46.9,39.7,29.64,NW,322,5.0,7.0,76,0.00,,,0.00,meteohub,2013-06-19 11:28:00,
2013-06-19 05:34:00,46.9,39.7,29.64,NW,322,1.0,6.0,76,0.00,,,0.00,meteohub,2013-06-19 11:34:00,
2013-06-19 05:40:00,46.6,39.4,29.64,NW,322,1.0,6.0,76,0.00,,,0.00,meteohub,2013-06-19 11:40:00,
2013-06-19 05:46:00,46.0,39.6,29.64,NW,322,2.0,3.0,78,0.00,,,0.00,meteohub,2013-06-19 11:46:00,
2013-06-19 05:52:00,46.0,39.6,29.64,NW,322,3.0,5.0,78,0.00,,,0.00,meteohub,2013-06-19 11:52:00,
2013-06-19 05:58:00,46.0,39.9,29.64,NW,322,4.0,5.0,79,0.00,,,0.00,meteohub,2013-06-19 11:58:00,
2013-06-19 06:04:00,46.0,39.9,29.64,NW,322,2.0,5.0,79,0.00,,,0.00,meteohub,2013-06-19 12:04:00,
2013-06-19 06:10:00,46.4,40.3,29.64,NW,322,1.0,5.0,79,0.00,,,0.00,meteohub,2013-06-19 12:10:00,
2013-06-19 06:16:00,46.8,40.3,29.64,NW,322,0.0,4.0,78,0.00,,,0.00,meteohub,2013-06-19 12:16:00,
2013-06-19 06:22:00,47.1,40.6,29.64,NW,322,0.0,3.0,78,0.00,,,0.00,meteohub,2013-06-19 12:22:00,
2013-06-19 06:28:00,48.0,41.2,29.64,NW,322,0.0,2.0,77,0.00,,,0.00,meteohub,2013-06-19 12:28:00,
2013-06-19 06:34:00,48.9,41.4,29.64,NW,322,0.0,2.0,75,0.00,,,0.00,meteohub,2013-06-19 12:34:00,
2013-06-19 06:40:00,49.5,41.2,29.64,NW,322,0.0,2.0,73,0.00,,,0.00,meteohub,2013-06-19 12:40:00,
2013-06-19 06:46:00,50.0,41.4,29.64,NW,322,0.0,2.0,72,0.00,,,0.00,meteohub,2013-06-19 12:46:00,
2013-06-19 06:52:00,50.9,41.2,29.64,NW,322,2.0,3.0,69,0.00,,,0.00,meteohub,2013-06-19 12:52:00,
2013-06-19 06:58:00,51.4,40.8,29.64,NW,322,2.0,3.0,67,0.00,,,0.00,meteohub,2013-06-19 12:58:00,
2013-06-19 07:04:00,52.0,41.0,29.64,NW,322,1.0,5.0,66,0.00,,,0.00,meteohub,2013-06-19 13:04:00,
2013-06-19 07:10:00,52.5,40.6,29.64,NW,322,2.0,5.0,64,0.00,,,0.00,meteohub,2013-06-19 13:10:00,
2013-06-19 07:16:00,52.5,40.3,29.64,NW,322,3.0,6.0,63,0.00,,,0.00,meteohub,2013-06-19 13:16:00,
2013-06-19 07:22:00,52.5,39.9,29.64,NW,322,2.0,6.0,62,0.00,,,0.00,meteohub,2013-06-19 13:22:00,
2013-06-19 07:28:00,52.9,40.3,29.64,NW,322,6.0,6.0,62,0.00,,,0.00,meteohub,2013-06-19 13:28:00,
2013-06-19 07:34:00,53.1,39.6,29.64,NW,322,5.0,6.0,60,0.00,,,0.00,meteohub,2013-06-19 13:34:00,
2013-06-19 07:40:00,53.2,39.7,29.64,NW,322,3.0,7.0,60,0.00,,,0.00,meteohub,2013-06-19 13:40:00,
2013-06-19 07:46:00,53.6,40.1,29.64,NW,322,4.0,7.0,60,0.00,,,0.00,meteohub,2013-06-19 13:46:00,
2013-06-19 07:52:00,53.8,40.3,29.64,NW,322,3.0,7.0,60,0.00,,,0.00,meteohub,2013-06-19 13:52:00,
2013-06-19 07:58:00,54.0,39.9,29.64,NW,322,3.0,7.0,59,0.00,,,0.00,meteohub,2013-06-19 13:58:00,
2013-06-19 08:04:00,54.5,39.6,29.64,NW,322,4.0,6.0,57,0.00,,,0.00,meteohub,2013-06-19 14:04:00,
2013-06-19 08:10:00,54.7,40.6,29.64,NW,322,1.0,5.0,59,0.00,,,0.00,meteohub,2013-06-19 14:10:00,
2013-06-19 08:16:00,54.9,40.3,29.63,NW,322,2.0,5.0,58,0.00,,,0.00,meteohub,2013-06-19 14:16:00,
2013-06-19 08:22:00,55.4,40.5,29.63,NW,322,0.0,4.0,57,0.00,,,0.00,meteohub,2013-06-19 14:22:00,
2013-06-19 08:28:00,56.1,41.2,29.62,NW,322,3.0,3.0,57,0.00,,,0.00,meteohub,2013-06-19 14:28:00,
2013-06-19 08:34:00,55.9,41.4,29.62,NW,322,2.0,6.0,58,0.00,,,0.00,meteohub,2013-06-19 14:34:00,
2013-06-19 08:40:00,56.1,41.2,29.62,NW,322,2.0,6.0,57,0.00,,,0.00,meteohub,2013-06-19 14:40:00,
2013-06-19 08:46:00,56.8,41.4,29.62,NW,322,3.0,6.0,56,0.00,,,0.00,meteohub,2013-06-19 14:46:00,
2013-06-19 08:52:00,57.0,41.0,29.61,NW,322,1.0,5.0,55,0.00,,,0.00,meteohub,2013-06-19 14:52:00,
2013-06-19 08:58:00,57.6,41.0,29.61,NW,322,1.0,6.0,54,0.00,,,0.00,meteohub,2013-06-19 14:58:00,
2013-06-19 09:04:00,58.6,41.5,29.61,NW,322,1.0,6.0,53,0.00,,,0.00,meteohub,2013-06-19 15:04:00,
2013-06-19 09:11:00,59.2,41.5,29.61,NW,322,5.0,5.0,52,0.00,,,0.00,meteohub,2013-06-19 15:11:00,
2013-06-19 09:17:00,59.2,42.1,29.60,NW,322,3.0,7.0,53,0.00,,,0.00,meteohub,2013-06-19 15:17:00,
2013-06-19 09:22:00,59.5,41.9,29.60,NW,322,4.0,7.0,52,0.00,,,0.00,meteohub,2013-06-19 15:22:00,
2013-06-19 09:29:00,60.3,42.6,29.60,NW,322,4.0,7.0,52,0.00,,,0.00,meteohub,2013-06-19 15:29:00,
2013-06-19 09:35:00,61.3,42.6,29.59,NW,320,3.0,7.0,50,0.00,,,0.00,meteohub,2013-06-19 15:35:00,
2013-06-19 09:41:00,62.2,42.3,29.59,ENE,68,9.0,9.0,48,0.00,,,0.00,meteohub,2013-06-19 15:41:00,
2013-06-19 09:47:00,62.2,42.3,29.59,East,92,7.0,10.0,48,0.00,,,0.00,meteohub,2013-06-19 15:47:00,
2013-06-19 09:53:00,62.6,42.1,29.58,East,92,2.0,10.0,47,0.00,,,0.00,meteohub,2013-06-19 15:53:00,
2013-06-19 09:59:00,63.0,41.4,29.58,East,92,0.0,10.0,45,0.00,,,0.00,meteohub,2013-06-19 15:59:00,
2013-06-19 10:05:00,63.7,40.8,29.58,East,92,7.0,8.0,43,0.00,,,0.00,meteohub,2013-06-19 16:05:00,
2013-06-19 10:11:00,64.0,39.9,29.57,East,92,3.0,8.0,41,0.00,,,0.00,meteohub,2013-06-19 16:11:00,
2013-06-19 10:17:00,64.8,41.7,29.57,East,92,5.0,8.0,43,0.00,,,0.00,meteohub,2013-06-19 16:17:00,
2013-06-19 10:23:00,65.5,39.9,29.57,East,92,6.0,8.0,39,0.00,,,0.00,meteohub,2013-06-19 16:23:00,
2013-06-19 10:29:00,66.2,39.2,29.57,East,92,5.0,9.0,37,0.00,,,0.00,meteohub,2013-06-19 16:29:00,
2013-06-19 10:35:00,66.4,40.6,29.57,East,92,1.0,9.0,39,0.00,,,0.00,meteohub,2013-06-19 16:35:00,
2013-06-19 10:41:00,66.7,39.6,29.57,East,95,5.0,10.0,37,0.00,,,0.00,meteohub,2013-06-19 16:41:00,
2013-06-19 10:47:00,67.5,37.4,29.56,East,99,7.0,10.0,33,0.00,,,0.00,meteohub,2013-06-19 16:47:00,
2013-06-19 10:53:00,67.8,37.6,29.56,East,100,5.0,10.0,33,0.00,,,0.00,meteohub,2013-06-19 16:53:00,
2013-06-19 10:59:00,68.7,37.6,29.56,East,101,2.0,11.0,32,0.00,,,0.00,meteohub,2013-06-19 16:59:00,
2013-06-19 11:05:00,69.3,38.8,29.56,NE,55,9.0,11.0,33,0.00,,,0.00,meteohub,2013-06-19 17:05:00,
2013-06-19 11:11:00,70.0,36.3,29.55,NE,49,8.0,14.0,29,0.00,,,0.00,meteohub,2013-06-19 17:11:00,
2013-06-19 11:17:00,70.7,36.9,29.55,South,170,8.0,14.0,29,0.00,,,0.00,meteohub,2013-06-19 17:17:00,
2013-06-19 11:23:00,71.2,36.5,29.55,SSE,155,4.0,12.0,28,0.00,,,0.00,meteohub,2013-06-19 17:23:00,
2013-06-19 11:29:00,73.0,35.1,29.55,ESE,120,12.0,12.0,25,0.00,,,0.00,meteohub,2013-06-19 17:29:00,
2013-06-19 11:35:00,74.5,30.7,29.54,SE,143,9.0,16.0,20,0.00,,,0.00,meteohub,2013-06-19 17:35:00,
2013-06-19 11:41:00,75.2,27.3,29.54,SE,140,12.0,17.0,17,0.00,,,0.00,meteohub,2013-06-19 17:41:00,
2013-06-19 11:47:00,75.4,28.9,29.54,SSE,166,13.0,17.0,18,0.00,,,0.00,meteohub,2013-06-19 17:47:00,
2013-06-19 11:53:00,75.4,27.5,29.54,South,190,7.0,18.0,17,0.00,,,0.00,meteohub,2013-06-19 17:53:00,
2013-06-19 11:59:00,76.5,25.3,29.53,South,169,11.0,19.0,15,0.00,,,0.00,meteohub,2013-06-19 17:59:00,
2013-06-19 12:05:00,76.3,25.2,29.53,SSE,166,13.0,18.0,15,0.00,,,0.00,meteohub,2013-06-19 18:05:00,
2013-06-19 12:11:00,76.5,25.3,29.52,SSE,161,6.0,18.0,15,0.00,,,0.00,meteohub,2013-06-19 18:11:00,
2013-06-19 12:17:00,76.8,25.7,29.52,South,171,13.0,18.0,15,0.00,,,0.00,meteohub,2013-06-19 18:17:00,
2013-06-19 12:23:00,77.2,24.3,29.52,South,173,21.0,22.0,14,0.00,,,0.00,meteohub,2013-06-19 18:23:00,
2013-06-19 12:29:00,77.0,24.1,29.52,SSE,151,18.0,23.0,14,0.00,,,0.00,meteohub,2013-06-19 18:29:00,
2013-06-19 12:35:00,77.5,22.8,29.52,SSE,155,15.0,24.0,13,0.00,,,0.00,meteohub,2013-06-19 18:35:00,
2013-06-19 12:41:00,77.4,20.8,29.52,SE,139,19.0,24.0,12,0.00,,,0.00,meteohub,2013-06-19 18:41:00,
2013-06-19 12:48:00,77.5,20.8,29.52,SE,144,7.0,24.0,12,0.00,,,0.00,meteohub,2013-06-19 18:48:00,
2013-06-19 12:54:00,78.3,21.6,29.51,South,180,17.0,24.0,12,0.00,,,0.00,meteohub,2013-06-19 18:54:00,
2013-06-19 13:00:00,78.4,23.5,29.52,South,173,7.0,25.0,13,0.00,,,0.00,meteohub,2013-06-19 19:00:00,
2013-06-19 13:06:00,78.4,17.4,29.51,SW,235,9.0,25.0,10,0.00,,,0.00,meteohub,2013-06-19 19:06:00,
2013-06-19 13:12:00,79.0,25.7,29.50,South,173,10.0,17.0,14,0.00,,,0.00,meteohub,2013-06-19 19:12:00,
2013-06-19 13:18:00,78.8,21.9,29.50,SE,136,17.0,20.0,12,0.00,,,0.00,meteohub,2013-06-19 19:18:00,
2013-06-19 13:24:00,79.2,24.1,29.49,SSE,148,17.0,23.0,13,0.00,,,0.00,meteohub,2013-06-19 19:24:00,
2013-06-19 13:30:00,79.2,20.1,29.49,SE,145,11.0,23.0,11,0.00,,,0.00,meteohub,2013-06-19 19:30:00,
2013-06-19 13:36:00,79.3,20.3,29.49,SSE,167,12.0,29.0,11,0.00,,,0.00,meteohub,2013-06-19 19:36:00,
2013-06-19 13:42:00,79.5,20.5,29.49,South,189,7.0,29.0,11,0.00,,,0.00,meteohub,2013-06-19 19:42:00,
2013-06-19 13:48:00,78.6,17.4,29.49,South,190,8.0,29.0,10,0.00,,,0.00,meteohub,2013-06-19 19:48:00,
2013-06-19 13:54:00,79.0,19.9,29.49,SSE,158,12.0,23.0,11,0.00,,,0.00,meteohub,2013-06-19 19:54:00,
2013-06-19 14:00:00,80.1,24.8,29.48,South,187,16.0,23.0,13,0.00,,,0.00,meteohub,2013-06-19 20:00:00,
2013-06-19 14:09:00,80.2,21.0,29.48,South,170,16.0,26.0,11,0.00,,,0.00,meteohub,2013-06-19 20:09:00,
2013-06-19 14:15:00,80.4,21.0,29.48,South,170,15.0,26.0,11,0.00,,,0.00,meteohub,2013-06-19 20:15:00,
2013-06-19 14:21:00,80.4,18.9,29.48,SSW,193,16.0,25.0,10,0.00,,,0.00,meteohub,2013-06-19 20:21:00,
2013-06-19 14:27:00,80.8,14.0,29.48,SW,230,9.0,22.0,8,0.00,,,0.00,meteohub,2013-06-19 20:27:00,
2013-06-19 14:33:00,81.0,11.1,29.48,SW,215,8.0,21.0,7,0.00,,,0.00,meteohub,2013-06-19 20:33:00,
2013-06-19 14:39:00,81.9,11.8,29.48,SW,231,20.0,21.0,7,0.00,,,0.00,meteohub,2013-06-19 20:39:00,
2013-06-19 14:45:00,81.5,14.5,29.48,WNW,284,5.0,20.0,8,0.00,,,0.00,meteohub,2013-06-19 20:45:00,
2013-06-19 14:51:00,82.8,12.4,29.46,SSE,162,11.0,20.0,7,0.00,,,0.00,meteohub,2013-06-19 20:51:00,
2013-06-19 14:57:00,83.1,12.7,29.47,SSW,203,7.0,19.0,7,0.00,,,0.00,meteohub,2013-06-19 20:57:00,
2013-06-19 15:03:00,83.1,9.1,29.47,South,188,13.0,19.0,6,0.00,,,0.00,meteohub,2013-06-19 21:03:00,
2013-06-19 15:09:00,81.7,4.1,29.47,WSW,237,13.0,19.0,5,0.00,,,0.00,meteohub,2013-06-19 21:09:00,
2013-06-19 15:16:00,81.9,4.3,29.47,West,272,7.0,21.0,5,0.00,,,0.00,meteohub,2013-06-19 21:16:00,
2013-06-19 15:22:00,81.7,4.1,29.47,West,270,12.0,21.0,5,0.00,,,0.00,meteohub,2013-06-19 21:22:00,
2013-06-19 15:28:00,82.2,4.6,29.47,WSW,247,13.0,21.0,5,0.00,,,0.00,meteohub,2013-06-19 21:28:00,
2013-06-19 15:34:00,82.6,4.8,29.46,SW,218,4.0,21.0,5,0.00,,,0.00,meteohub,2013-06-19 21:34:00,
2013-06-19 15:40:00,82.6,4.8,29.46,SSW,212,2.0,21.0,5,0.00,,,0.00,meteohub,2013-06-19 21:40:00,
2013-06-19 15:46:00,83.5,5.4,29.46,SW,218,10.0,16.0,5,0.00,,,0.00,meteohub,2013-06-19 21:46:00,
2013-06-19 15:52:00,83.5,0.7,29.45,SW,225,6.0,14.0,4,0.00,,,0.00,meteohub,2013-06-19 21:52:00,
2013-06-19 15:58:00,82.4,4.6,29.45,WNW,290,11.0,14.0,5,0.00,,,0.00,meteohub,2013-06-19 21:58:00,
2013-06-19 16:04:00,81.7,-0.6,29.44,SSW,196,9.0,16.0,4,0.00,,,0.00,meteohub,2013-06-19 22:04:00,
2013-06-19 16:10:00,81.7,4.1,29.44,SW,233,13.0,20.0,5,0.00,,,0.00,meteohub,2013-06-19 22:10:00,
2013-06-19 16:16:00,82.0,-0.4,29.45,NW,316,10.0,20.0,4,0.00,,,0.00,meteohub,2013-06-19 22:16:00,
2013-06-19 16:22:00,82.2,-0.2,29.44,West,266,3.0,20.0,4,0.00,,,0.00,meteohub,2013-06-19 22:22:00,
2013-06-19 16:28:00,81.1,-0.9,29.43,West,262,2.0,20.0,4,0.00,,,0.00,meteohub,2013-06-19 22:28:00,
2013-06-19 16:34:00,81.9,4.3,29.44,SW,221,6.0,16.0,5,0.00,,,0.00,meteohub,2013-06-19 22:34:00,
2013-06-19 16:40:00,82.9,-5.8,29.44,SSW,200,17.0,18.0,3,0.00,,,0.00,meteohub,2013-06-19 22:40:00,
2013-06-19 16:46:00,83.3,-13.7,29.43,SSW,193,13.0,31.0,2,0.00,,,0.00,meteohub,2013-06-19 22:46:00,
2013-06-19 16:52:00,82.8,-14.1,29.44,West,280,12.0,31.0,2,0.00,,,0.00,meteohub,2013-06-19 22:52:00,
2013-06-19 16:58:00,82.6,-6.0,29.44,SW,230,12.0,21.0,3,0.00,,,0.00,meteohub,2013-06-19 22:58:00,
2013-06-19 17:04:00,81.1,-15.2,29.43,WSW,246,13.0,21.0,2,0.00,,,0.00,meteohub,2013-06-19 23:04:00,
2013-06-19 17:10:00,81.9,-6.5,29.44,SW,233,15.0,21.0,3,0.00,,,0.00,meteohub,2013-06-19 23:10:00,
2013-06-19 17:16:00,81.9,-0.4,29.43,SSW,207,14.0,21.0,4,0.00,,,0.00,meteohub,2013-06-19 23:16:00,
2013-06-19 17:22:00,81.3,-0.9,29.43,SW,217,17.0,25.0,4,0.00,,,0.00,meteohub,2013-06-19 23:22:00,
2013-06-19 17:28:00,82.0,-0.4,29.44,West,269,8.0,25.0,4,0.00,,,0.00,meteohub,2013-06-19 23:28:00,
2013-06-19 17:34:00,82.0,-0.4,29.44,WSW,245,13.0,25.0,4,0.00,,,0.00,meteohub,2013-06-19 23:34:00,
2013-06-19 17:40:00,81.5,-0.8,29.44,West,264,12.0,19.0,4,0.00,,,0.00,meteohub,2013-06-19 23:40:00,
2013-06-19 17:46:00,81.5,-0.8,29.44,WSW,253,9.0,20.0,4,0.00,,,0.00,meteohub,2013-06-19 23:46:00,
2013-06-19 17:52:00,81.1,-7.1,29.44,SW,214,9.0,20.0,3,0.00,,,0.00,meteohub,2013-06-19 23:52:00,
2013-06-19 17:58:00,80.8,-1.3,29.43,SW,219,18.0,20.0,4,0.00,,,0.00,meteohub,2013-06-19 23:58:00,
2013-06-19 18:04:00,80.2,-1.7,29.44,WSW,237,15.0,28.0,4,0.00,,,0.00,meteohub,2013-06-20 00:04:00,
2013-06-19 18:10:00,80.2,-1.7,29.44,WSW,239,10.0,28.0,4,0.00,,,0.00,meteohub,2013-06-20 00:10:00,
2013-06-19 18:16:00,80.2,-1.7,29.44,West,266,12.0,26.0,4,0.00,,,0.00,meteohub,2013-06-20 00:16:00,
2013-06-19 18:22:00,80.2,-1.7,29.44,NW,308,12.0,21.0,4,0.00,,,0.00,meteohub,2013-06-20 00:22:00,
2013-06-19 18:28:00,80.1,-1.7,29.44,West,267,8.0,17.0,4,0.00,,,0.00,meteohub,2013-06-20 00:28:00,
2013-06-19 18:34:00,79.9,-1.8,29.44,SW,230,18.0,18.0,4,0.00,,,0.00,meteohub,2013-06-20 00:34:00,
2013-06-19 18:40:00,79.3,-2.2,29.44,WSW,237,8.0,19.0,4,0.00,,,0.00,meteohub,2013-06-20 00:40:00,
2013-06-19 18:46:00,78.8,-2.6,29.44,WSW,255,13.0,20.0,4,0.00,,,0.00,meteohub,2013-06-20 00:46:00,
2013-06-19 18:52:00,78.4,-2.9,29.44,WNW,282,20.0,22.0,4,0.00,,,0.00,meteohub,2013-06-20 00:52:00,
2013-06-19 18:58:00,78.4,-2.9,29.44,WSW,245,13.0,22.0,4,0.00,,,0.00,meteohub,2013-06-20 00:58:00,
2013-06-19 19:05:00,78.3,1.8,29.44,WSW,253,9.0,22.0,5,0.00,,,0.00,meteohub,2013-06-20 01:05:00,
2013-06-19 19:11:00,78.3,1.8,29.45,West,271,9.0,26.0,5,0.00,,,0.00,meteohub,2013-06-20 01:11:00,
2013-06-19 19:17:00,78.1,1.6,29.45,WSW,245,4.0,18.0,5,0.00,,,0.00,meteohub,2013-06-20 01:17:00,
2013-06-19 19:23:00,77.5,1.2,29.45,WSW,246,16.0,18.0,5,0.00,,,0.00,meteohub,2013-06-20 01:23:00,
2013-06-19 19:29:00,77.2,1.0,29.45,West,266,9.0,20.0,5,0.00,,,0.00,meteohub,2013-06-20 01:29:00,
2013-06-19 19:35:00,76.8,0.7,29.45,SW,234,8.0,20.0,5,0.00,,,0.00,meteohub,2013-06-20 01:35:00,
2013-06-19 19:41:00,76.6,0.7,29.45,WSW,247,7.0,15.0,5,0.00,,,0.00,meteohub,2013-06-20 01:41:00,
2013-06-19 19:47:00,76.3,4.3,29.45,WSW,253,10.0,14.0,6,0.00,,,0.00,meteohub,2013-06-20 01:47:00,
2013-06-19 19:53:00,75.7,3.9,29.45,West,264,6.0,14.0,6,0.00,,,0.00,meteohub,2013-06-20 01:53:00,
2013-06-19 19:59:00,75.0,3.4,29.46,WSW,248,5.0,14.0,6,0.00,,,0.00,meteohub,2013-06-20 01:59:00,
2013-06-19 20:05:00,74.1,2.7,29.46,WSW,245,4.0,12.0,6,0.00,,,0.00,meteohub,2013-06-20 02:05:00,
2013-06-19 20:11:00,73.4,5.5,29.46,WSW,244,7.0,8.0,7,0.00,,,0.00,meteohub,2013-06-20 02:11:00,
2013-06-19 20:17:00,73.0,5.4,29.46,WSW,244,4.0,9.0,7,0.00,,,0.00,meteohub,2013-06-20 02:17:00,
2013-06-19 20:23:00,72.3,4.8,29.47,WSW,244,4.0,9.0,7,0.00,,,0.00,meteohub,2013-06-20 02:23:00,
2013-06-19 20:29:00,71.8,7.3,29.47,WSW,243,5.0,9.0,8,0.00,,,0.00,meteohub,2013-06-20 02:29:00,
2013-06-19 20:35:00,71.1,6.8,29.47,WSW,243,4.0,8.0,8,0.00,,,0.00,meteohub,2013-06-20 02:35:00,
2013-06-19 20:41:00,70.5,6.3,29.47,WSW,243,5.0,8.0,8,0.00,,,0.00,meteohub,2013-06-20 02:41:00,
2013-06-19 20:47:00,70.3,6.3,29.47,WSW,243,4.0,8.0,8,0.00,,,0.00,meteohub,2013-06-20 02:47:00,
2013-06-19 20:53:00,70.0,5.9,29.48,WSW,243,4.0,8.0,8,0.00,,,0.00,meteohub,2013-06-20 02:53:00,
2013-06-19 20:59:00,69.3,5.4,29.48,WSW,243,4.0,7.0,8,0.00,,,0.00,meteohub,2013-06-20 02:59:00,
2013-06-19 21:05:00,68.4,7.3,29.48,WSW,243,3.0,7.0,9,0.00,,,0.00,meteohub,2013-06-20 03:05:00,
2013-06-19 21:11:00,67.6,6.8,29.48,WSW,243,4.0,7.0,9,0.00,,,0.00,meteohub,2013-06-20 03:11:00,
2013-06-19 21:17:00,67.1,6.4,29.48,WSW,243,4.0,7.0,9,0.00,,,0.00,meteohub,2013-06-20 03:17:00,
2013-06-19 21:23:00,66.4,5.9,29.49,WSW,244,4.0,7.0,9,0.00,,,0.00,meteohub,2013-06-20 03:23:00,
2013-06-19 21:29:00,65.8,5.4,29.49,WSW,246,4.0,7.0,9,0.00,,,0.00,meteohub,2013-06-20 03:29:00,
2013-06-19 21:35:00,65.5,7.5,29.49,WSW,255,7.0,7.0,10,0.00,,,0.00,meteohub,2013-06-20 03:35:00,
2013-06-19 21:41:00,64.8,7.0,29.49,WSW,255,4.0,7.0,10,0.00,,,0.00,meteohub,2013-06-20 03:41:00,
2013-06-19 21:47:00,64.2,6.4,29.50,WSW,256,4.0,7.0,10,0.00,,,0.00,meteohub,2013-06-20 03:47:00,
2013-06-19 21:53:00,63.9,8.2,29.50,WSW,256,3.0,7.0,11,0.00,,,0.00,meteohub,2013-06-20 03:53:00,
2013-06-19 21:59:00,63.3,7.9,29.50,WSW,256,4.0,7.0,11,0.00,,,0.00,meteohub,2013-06-20 03:59:00,
2013-06-19 22:02:00,63.1,7.7,29.51,WSW,256,5.0,7.0,11,0.00,,,0.00,meteohub,2013-06-20 04:02:00,
2013-06-19 22:05:00,62.8,7.5,29.51,WSW,257,3.0,7.0,11,0.00,,,0.00,meteohub,2013-06-20 04:05:00,
2013-06-19 22:11:00,62.6,7.3,29.51,West,259,5.0,7.0,11,0.00,,,0.00,meteohub,2013-06-20 04:11:00,
2013-06-19 22:12:00,62.6,7.3,29.51,West,259,4.0,7.0,11,0.00,,,0.00,meteohub,2013-06-20 04:12:00,
2013-06-19 22:18:00,62.4,7.2,29.51,West,259,6.0,7.0,11,0.00,,,0.00,meteohub,2013-06-20 04:18:00,
2013-06-19 22:22:00,62.2,7.0,29.51,West,261,7.0,7.0,11,0.00,,,0.00,meteohub,2013-06-20 04:22:00,
2013-06-19 22:27:00,62.1,8.8,29.51,West,262,4.0,8.0,12,0.00,,,0.00,meteohub,2013-06-20 04:27:00,
2013-06-19 22:33:00,61.9,8.6,29.51,West,262,5.0,8.0,12,0.00,,,0.00,meteohub,2013-06-20 04:33:00,
2013-06-19 22:39:00,61.3,8.2,29.51,West,263,3.0,8.0,12,0.00,,,0.00,meteohub,2013-06-20 04:39:00,
2013-06-19 22:45:00,61.2,8.1,29.52,West,267,3.0,8.0,12,0.00,,,0.00,meteohub,2013-06-20 04:45:00,
2013-06-19 22:51:00,61.2,8.1,29.52,West,267,5.0,8.0,12,0.00,,,0.00,meteohub,2013-06-20 04:51:00,
2013-06-19 22:57:00,61.3,8.2,29.52,West,268,4.0,8.0,12,0.00,,,0.00,meteohub,2013-06-20 04:57:00,
2013-06-19 23:03:00,61.5,8.4,29.52,West,268,4.0,8.0,12,0.00,,,0.00,meteohub,2013-06-20 05:03:00,
2013-06-19 23:09:00,61.7,8.6,29.52,West,268,4.0,8.0,12,0.00,,,0.00,meteohub,2013-06-20 05:09:00,
2013-06-19 23:15:00,61.9,8.6,29.52,West,268,5.0,8.0,12,0.00,,,0.00,meteohub,2013-06-20 05:15:00,
2013-06-19 23:21:00,61.9,6.8,29.52,West,268,4.0,7.0,11,0.00,,,0.00,meteohub,2013-06-20 05:21:00,
2013-06-19 23:27:00,61.9,6.8,29.51,West,268,4.0,7.0,11,0.00,,,0.00,meteohub,2013-06-20 05:27:00,
2013-06-19 23:33:00,61.9,8.6,29.52,West,269,3.0,7.0,12,0.00,,,0.00,meteohub,2013-06-20 05:33:00,
2013-06-19 23:39:00,61.0,8.1,29.52,West,261,2.0,7.0,12,0.00,,,0.00,meteohub,2013-06-20 05:39:00,
2013-06-19 23:45:00,60.8,9.7,29.52,West,261,0.0,7.0,13,0.00,,,0.00,meteohub,2013-06-20 05:45:00,
2013-06-19 23:51:00,60.3,9.1,29.52,West,261,0.0,7.0,13,0.00,,,0.00,meteohub,2013-06-20 05:51:00,
2013-06-19 23:57:00,59.9,7.2,29.52,West,261,3.0,3.0,12,0.00,,,0.00,meteohub,2013-06-20 05:57:00,